Time;durP1;ratioP1;P1;durP2;ratioP2;P2;SDS_P1;SDS_P2;PMS_P1;PMS_P2;Temp;Humidity;BMP_temperature;BMP_pressure;BME280_temperature;BME280_humidity;BME280_pressure;Samples;Min_cycle;Max_cycle;Signal;HPM_P1;HPM_P2
2023/02/03 00:00:18;;;;;;;5.55;4.13;;;;;;;8.37;53.34;102147.41;4906715;29;20433;-68
2023/02/03 00:02:46;;;;;;;6.80;3.88;;;;;;;8.36;53.21;102143.78;4906415;29;20536;-68
2023/02/03 00:05:14;;;;;;;6.63;4.85;;;;;;;8.37;53.37;102125.56;4906666;29;20060;-68
2023/02/03 00:07:43;;;;;;;7.82;4.00;;;;;;;8.37;53.24;102131.91;4905439;28;20055;-69
2023/02/03 00:10:13;;;;;;;7.95;4.10;;;;;;;8.39;53.04;102134.56;4940482;28;20079;-68
2023/02/03 00:12:41;;;;;;;6.43;3.97;;;;;;;8.38;53.39;102120.03;4907350;29;20504;-69
2023/02/03 00:15:09;;;;;;;6.65;4.10;;;;;;;8.39;53.02;102113.63;4903744;29;20052;-69
2023/02/03 00:17:37;;;;;;;7.65;4.35;;;;;;;8.39;53.06;102112.72;4904700;28;20405;-69
2023/02/03 00:20:06;;;;;;;5.80;4.05;;;;;;;8.40;53.02;102107.19;4904581;28;20049;-69
2023/02/03 00:22:34;;;;;;;7.38;4.13;;;;;;;8.40;53.01;102104.47;4906397;29;20055;-68
2023/02/03 00:25:02;;;;;;;6.28;4.05;;;;;;;8.40;53.24;102101.75;4903650;28;20048;-69
2023/02/03 00:27:32;;;;;;;7.25;4.15;;;;;;;8.42;53.29;102108.00;4911654;28;20042;-69
2023/02/03 00:30:00;;;;;;;5.82;3.90;;;;;;;8.41;52.81;102108.06;4906381;28;20059;-68
2023/02/03 00:32:28;;;;;;;5.65;3.80;;;;;;;8.41;52.81;102106.22;4906266;29;20052;-68
2023/02/03 00:34:56;;;;;;;6.63;3.95;;;;;;;8.42;53.13;102113.44;4904840;28;20063;-68
2023/02/03 00:37:24;;;;;;;6.35;4.40;;;;;;;8.42;53.23;102102.53;4916225;28;20578;-69
2023/02/03 00:39:52;;;;;;;6.40;4.05;;;;;;;8.43;52.74;102087.91;4969237;28;20082;-69
2023/02/03 00:42:20;;;;;;;7.40;4.05;;;;;;;8.42;53.08;102085.28;4908418;28;20056;-68
2023/02/03 00:44:49;;;;;;;9.00;4.03;;;;;;;8.44;52.95;102077.88;4907965;28;20135;-69
2023/02/03 00:47:17;;;;;;;4.82;3.55;;;;;;;8.43;53.27;102076.97;4909483;29;20386;-69
2023/02/03 00:49:44;;;;;;;6.57;3.80;;;;;;;8.43;53.27;102076.97;4908199;28;20062;-68
2023/02/03 00:52:12;;;;;;;7.47;4.57;;;;;;;8.43;53.21;102090.63;4910274;29;20498;-68
2023/02/03 00:54:40;;;;;;;7.30;3.50;;;;;;;8.44;53.14;102099.69;4908748;28;20048;-68
2023/02/03 00:57:08;;;;;;;6.78;3.47;;;;;;;8.44;53.23;102096.97;4908526;29;20040;-68
2023/02/03 00:59:36;;;;;;;5.07;3.30;;;;;;;8.44;52.73;102096.97;4907244;28;20052;-68
2023/02/03 01:02:05;;;;;;;6.63;3.50;;;;;;;8.45;53.19;102091.41;4922944;28;20044;-68
2023/02/03 01:04:33;;;;;;;7.13;3.10;;;;;;;8.44;53.13;102100.56;4907386;28;20094;-69
2023/02/03 01:07:00;;;;;;;6.70;3.60;;;;;;;8.45;53.27;102098.72;4923108;28;20048;-68
2023/02/03 01:09:28;;;;;;;5.25;3.20;;;;;;;8.45;53.27;102118.69;4908217;28;20052;-68
2023/02/03 01:11:56;;;;;;;5.70;3.15;;;;;;;8.46;52.80;102115.00;4908713;28;20869;-69
2023/02/03 01:14:24;;;;;;;5.10;3.17;;;;;;;8.45;52.76;102124.16;4899652;28;20118;-68
2023/02/03 01:16:52;;;;;;;5.55;2.95;;;;;;;8.46;53.19;102130.50;4901906;29;20514;-68
2023/02/03 01:19:21;;;;;;;5.45;3.10;;;;;;;8.47;53.14;102129.53;4899046;28;20139;-69
2023/02/03 01:21:49;;;;;;;6.10;3.20;;;;;;;8.47;53.21;102141.31;4907668;29;20519;-68
2023/02/03 01:24:17;;;;;;;5.47;3.40;;;;;;;8.46;52.70;102142.28;4896234;29;20131;-68
2023/02/03 01:26:45;;;;;;;7.00;2.97;;;;;;;8.48;52.64;102151.28;4905976;28;20481;-69
2023/02/03 01:29:14;;;;;;;5.95;3.13;;;;;;;8.48;52.96;102143.09;4924959;28;20694;-69
2023/02/03 01:31:42;;;;;;;5.10;2.80;;;;;;;8.48;52.91;102144.94;4906378;28;20067;-68
2023/02/03 01:34:15;;;;;;;6.40;3.03;;;;;;;8.49;53.03;102143.97;4908572;28;20059;-68
2023/02/03 01:36:45;;;;;;;4.32;2.92;;;;;;;8.47;53.21;102141.31;4907626;28;20049;-68
2023/02/03 01:39:13;;;;;;;5.82;3.30;;;;;;;8.48;53.03;102148.53;4914692;28;20780;-68
2023/02/03 01:41:41;;;;;;;4.70;2.70;;;;;;;8.48;53.19;102147.66;4947069;28;20044;-68
2023/02/03 01:44:44;;;;;;;6.88;2.80;;;;;;;8.49;52.84;102147.59;4906502;28;20131;-68
2023/02/03 01:47:18;;;;;;;3.95;2.50;;;;;;;8.48;52.84;102148.53;4923020;28;20106;-68
2023/02/03 01:49:53;;;;;;;4.78;2.88;;;;;;;8.50;52.82;102146.63;4934914;28;20580;-68
2023/02/03 01:52:22;;;;;;;5.93;2.97;;;;;;;8.50;52.83;102149.34;4906346;28;20127;-67
2023/02/03 01:54:53;;;;;;;4.75;2.88;;;;;;;8.51;52.51;102151.06;4909055;29;20497;-68
2023/02/03 01:57:24;;;;;;;5.53;2.70;;;;;;;8.52;52.58;102143.78;4907857;28;20044;-69
2023/02/03 01:59:55;;;;;;;4.75;2.80;;;;;;;8.52;52.86;102133.75;4934997;28;20088;-68
2023/02/03 02:02:23;;;;;;;5.93;2.60;;;;;;;8.51;53.08;102128.38;4923931;28;20048;-68
2023/02/03 02:04:56;;;;;;;6.57;2.85;;;;;;;8.52;52.53;102127.41;4905507;28;20052;-68
2023/02/03 02:07:26;;;;;;;4.07;2.40;;;;;;;8.53;52.64;102142.81;4907762;28;20123;-68
2023/02/03 02:09:55;;;;;;;5.22;2.90;;;;;;;8.54;52.72;102150.03;4908186;28;20044;-68
2023/02/03 02:12:23;;;;;;;5.78;2.65;;;;;;;8.52;52.92;102147.38;4909700;29;20140;-68
2023/02/03 02:14:51;;;;;;;5.32;2.45;;;;;;;8.53;53.17;102146.41;4900825;29;20048;-68
2023/02/03 02:17:45;;;;;;;7.10;2.70;;;;;;;8.54;52.61;102139.13;4896633;29;20044;-68
2023/02/03 02:20:34;;;;;;;5.78;2.50;;;;;;;8.53;52.45;102127.31;4906639;28;20044;-69
2023/02/03 02:23:36;;;;;;;3.80;2.40;;;;;;;8.54;53.00;102111.81;4952666;28;20570;-68
2023/02/03 02:26:32;;;;;;;5.32;2.58;;;;;;;8.54;52.41;102109.97;4929515;23;20674;-76
2023/02/03 02:29:18;;;;;;;4.38;2.10;;;;;;;8.56;52.61;102099.84;4933799;28;20055;-76
2023/02/03 02:32:00;;;;;;;4.45;2.40;;;;;;;8.56;52.36;102099.84;4937441;28;20182;-77
2023/02/03 02:34:39;;;;;;;5.30;2.58;;;;;;;8.59;52.56;102098.78;4985543;28;20049;-77
2023/02/03 02:37:19;;;;;;;4.88;2.42;;;;;;;8.57;52.53;102101.63;4998179;28;20542;-78
2023/02/03 02:40:05;;;;;;;4.30;2.17;;;;;;;8.58;52.53;102103.38;4996964;28;20076;-78
2023/02/03 02:42:39;;;;;;;5.28;2.30;;;;;;;8.57;52.54;102092.56;4983403;28;20115;-79
2023/02/03 02:45:15;;;;;;;5.35;2.20;;;;;;;8.58;52.68;102094.31;4952750;28;20045;-77
2023/02/03 02:47:45;;;;;;;5.15;2.60;;;;;;;8.57;52.77;102101.63;4941650;28;20038;-77
2023/02/03 02:50:20;;;;;;;5.70;2.20;;;;;;;8.58;52.21;102103.38;5029421;28;20156;-77
2023/02/03 02:52:49;;;;;;;5.18;2.55;;;;;;;8.58;52.90;102097.94;4933568;28;20080;-77
2023/02/03 02:55:23;;;;;;;5.03;2.15;;;;;;;8.60;52.67;102103.25;4980275;28;20055;-77
2023/02/03 02:57:56;;;;;;;3.30;2.00;;;;;;;8.58;52.50;102100.66;4986663;28;20058;-77
2023/02/03 03:00:25;;;;;;;3.90;2.47;;;;;;;8.56;52.71;102104.44;4937847;28;20064;-77
2023/02/03 03:02:56;;;;;;;3.22;2.03;;;;;;;8.59;52.26;102107.84;4936211;28;20475;-77
2023/02/03 03:05:26;;;;;;;6.10;2.38;;;;;;;8.58;52.69;102091.59;4929369;28;20513;-77
2023/02/03 03:08:01;;;;;;;4.90;2.65;;;;;;;8.59;52.26;102077.81;4928925;28;20453;-77
2023/02/03 03:10:32;;;;;;;5.93;2.75;;;;;;;8.60;52.16;102062.34;4934146;28;20052;-77
2023/02/03 03:13:05;;;;;;;4.55;2.05;;;;;;;8.60;52.24;102062.34;4926369;28;20036;-77
2023/02/03 03:15:36;;;;;;;4.40;2.53;;;;;;;8.60;52.27;102062.34;5007029;28;20051;-77
2023/02/03 03:18:13;;;;;;;6.43;2.60;;;;;;;8.62;52.13;102065.84;4929479;28;20049;-77
2023/02/03 03:20:43;;;;;;;4.10;2.17;;;;;;;8.60;52.69;102075.97;4946263;28;20134;-77
2023/02/03 03:23:18;;;;;;;4.35;2.08;;;;;;;8.61;52.44;102091.38;4928355;29;20052;-77
2023/02/03 03:25:51;;;;;;;5.70;2.70;;;;;;;8.61;52.58;102099.56;4927993;29;20044;-77
2023/02/03 03:28:26;;;;;;;4.22;2.13;;;;;;;8.61;52.17;102095.00;4959955;28;20045;-78
2023/02/03 03:30:54;;;;;;;5.78;2.55;;;;;;;8.58;52.50;102114.31;4936746;28;20036;-78
2023/02/03 03:33:23;;;;;;;6.35;2.45;;;;;;;8.61;52.08;102113.22;4968665;28;20047;-78
2023/02/03 03:35:57;;;;;;;3.63;2.05;;;;;;;8.60;52.13;102104.16;4957659;28;20049;-78
2023/02/03 03:38:32;;;;;;;4.22;2.50;;;;;;;8.62;52.44;102098.59;4946015;28;20102;-78
2023/02/03 03:41:05;;;;;;;6.00;2.60;;;;;;;8.61;52.11;102095.00;4956547;28;20058;-78
2023/02/03 03:43:38;;;;;;;6.00;2.80;;;;;;;8.59;52.38;102075.09;4938481;28;20067;-78
2023/02/03 03:46:09;;;;;;;;;;;;;;;8.36;52.78;102086.50;4931453;29;20119;-78
2023/02/03 03:48:46;;;;;;;4.93;2.65;;;;;;;8.58;52.29;102086.13;4958584;28;20330;-78
2023/02/03 03:51:19;;;;;;;5.55;2.47;;;;;;;8.59;52.01;102091.47;4929744;28;20493;-81
2023/02/03 03:53:51;;;;;;;6.18;3.05;;;;;;;8.60;52.18;102097.81;4980014;28;20056;-78
2023/02/03 03:56:26;;;;;;;6.95;2.90;;;;;;;8.59;52.22;102090.59;4943667;28;20094;-78
2023/02/03 03:58:54;;;;;;;4.28;2.75;;;;;;;8.58;52.60;102084.28;4931463;28;20481;-78
2023/02/03 04:01:23;;;;;;;6.63;3.00;;;;;;;8.60;52.41;102075.97;4925667;29;20055;-78
2023/02/03 04:03:56;;;;;;;4.82;2.72;;;;;;;8.62;52.11;102074.03;4929999;28;20765;-78
2023/02/03 04:06:24;;;;;;;4.80;3.08;;;;;;;8.59;52.39;102085.13;4918271;29;20082;-78
2023/02/03 04:08:52;;;;;;;4.22;2.83;;;;;;;8.59;51.93;102079.66;4954746;28;20041;-78
2023/02/03 04:14:02;;;;;;;3.90;2.60;;;;;;;8.59;52.41;102082.41;4931374;28;20142;-77
2023/02/03 04:16:29;;;;;;;4.18;2.70;;;;;;;8.60;52.12;102078.72;4933834;29;20315;-77
2023/02/03 04:18:59;;;;;;;7.22;2.80;;;;;;;8.62;52.37;102083.09;4928982;28;20143;-78
2023/02/03 04:21:27;;;;;;;5.72;2.65;;;;;;;8.61;52.10;102094.13;4944536;28;20051;-78
2023/02/03 04:23:55;;;;;;;4.93;2.45;;;;;;;8.60;52.25;102090.50;5010172;28;20051;-78
2023/02/03 04:26:23;;;;;;;5.30;2.65;;;;;;;8.62;52.49;102083.09;4939493;28;20093;-78
2023/02/03 04:28:51;;;;;;;7.25;2.85;;;;;;;8.62;52.20;102082.22;4943705;28;20049;-78
2023/02/03 04:31:19;;;;;;;6.60;2.97;;;;;;;8.61;52.45;102084.06;4928155;29;20048;-78
2023/02/03 04:33:47;;;;;;;6.63;2.70;;;;;;;8.62;52.20;102076.78;4933872;28;20055;-78
2023/02/03 04:36:16;;;;;;;5.68;2.63;;;;;;;8.64;52.25;102083.03;4932867;28;20044;-78
2023/02/03 04:38:44;;;;;;;4.60;2.38;;;;;;;8.62;52.19;102083.09;4933181;28;20043;-78
2023/02/03 04:41:12;;;;;;;5.97;2.17;;;;;;;8.63;52.01;102087.59;4932036;28;20044;-78
2023/02/03 04:43:40;;;;;;;4.68;2.35;;;;;;;8.62;51.98;102083.09;5011215;28;20446;-78
2023/02/03 04:46:09;;;;;;;7.55;2.58;;;;;;;8.61;52.11;102078.63;4925857;28;20098;-78
2023/02/03 04:48:37;;;;;;;6.32;2.53;;;;;;;8.63;51.98;102081.25;4924231;28;20055;-77
2023/02/03 04:51:07;;;;;;;5.57;2.08;;;;;;;8.64;52.05;102072.09;4975613;28;20066;-77
2023/02/03 04:53:36;;;;;;;6.82;2.60;;;;;;;8.63;52.24;102065.78;4992763;28;20495;-78
2023/02/03 04:56:05;;;;;;;4.85;2.20;;;;;;;8.63;52.42;102073.06;4939139;29;20070;-78
2023/02/03 04:58:33;;;;;;;4.05;1.90;;;;;;;8.62;52.47;102069.47;4927645;29;20052;-78
2023/02/03 05:01:07;;;;;;;4.93;2.25;;;;;;;8.64;51.82;102069.38;4929558;29;20043;-78
2023/02/03 05:03:35;;;;;;;6.20;2.30;;;;;;;8.61;51.99;102050.44;4927077;28;20047;-78
2023/02/03 05:06:04;;;;;;;5.43;2.20;;;;;;;8.61;52.13;102067.72;4928494;28;20473;-78
2023/02/03 05:08:32;;;;;;;5.95;2.35;;;;;;;8.62;52.28;102066.75;4955827;28;20164;-78
2023/02/03 05:11:01;;;;;;;6.20;2.28;;;;;;;8.63;51.79;102060.31;4952330;28;20048;-78
2023/02/03 05:13:30;;;;;;;5.15;2.22;;;;;;;8.62;52.11;102060.41;4929092;29;20550;-78
2023/02/03 05:15:58;;;;;;;5.05;2.00;;;;;;;8.62;52.26;102058.56;4928025;29;20040;-78
2023/02/03 05:18:26;;;;;;;6.25;2.55;;;;;;;8.62;51.88;102050.38;4929363;28;20043;-78
2023/02/03 05:20:54;;;;;;;7.03;2.42;;;;;;;8.63;52.11;102059.44;4957829;28;20037;-78
2023/02/03 05:23:22;;;;;;;5.30;2.35;;;;;;;8.64;51.86;102053.00;4969275;28;20048;-78
2023/02/03 05:25:50;;;;;;;5.28;1.85;;;;;;;8.64;51.86;102053.00;4933756;28;20039;-78
2023/02/03 05:28:20;;;;;;;3.20;1.83;;;;;;;8.64;51.87;102048.44;4932343;28;20094;-79
2023/02/03 05:30:50;;;;;;;3.83;1.98;;;;;;;8.63;52.30;102043.94;4936811;29;20048;-78
2023/02/03 05:33:18;;;;;;;4.68;2.05;;;;;;;8.64;51.93;102031.19;4933911;28;20093;-78
2023/02/03 05:35:46;;;;;;;4.13;2.00;;;;;;;8.64;52.09;102044.81;4937108;28;20044;-79
2023/02/03 05:38:19;;;;;;;;;;;;;;;8.41;52.53;102050.78;4963417;28;20039;-78
2023/02/03 05:43:40;;;;;;;6.47;1.80;;;;;;;8.61;51.95;102045.88;4926823;28;20044;-78
2023/02/03 05:46:08;;;;;;;2.92;1.80;;;;;;;8.62;52.25;102047.63;4935055;28;20520;-78
2023/02/03 05:48:36;;;;;;;4.78;1.75;;;;;;;8.64;52.11;102064.81;4924369;28;20039;-77
2023/02/03 05:51:04;;;;;;;4.22;1.90;;;;;;;8.63;51.74;102071.22;4932209;28;20040;-78
2023/02/03 05:53:32;;;;;;;5.13;1.70;;;;;;;8.63;52.22;102086.72;4932260;28;20062;-78
2023/02/03 05:56:00;;;;;;;3.75;1.60;;;;;;;8.64;51.95;102073.00;4945135;28;20058;-78
2023/02/03 05:58:28;;;;;;;4.43;1.67;;;;;;;8.63;52.01;102068.50;4930069;28;20105;-78
2023/02/03 06:00:57;;;;;;;4.70;1.75;;;;;;;8.66;51.58;102071.06;4932055;28;20040;-78
2023/02/03 06:03:28;;;;;;;3.25;1.70;;;;;;;8.65;51.74;102068.41;4930414;28;20134;-78
2023/02/03 06:05:57;;;;;;;4.13;1.42;;;;;;;8.67;51.74;102074.66;4959438;28;20075;-78
2023/02/03 06:08:27;;;;;;;3.28;1.50;;;;;;;8.66;51.72;102073.78;4929218;28;20570;-78
2023/02/03 06:10:58;;;;;;;4.22;1.63;;;;;;;8.69;51.75;102080.88;4931632;28;20060;-78
2023/02/03 06:13:27;;;;;;;3.65;1.42;;;;;;;8.67;51.69;102075.50;4931439;28;20047;-78
2023/02/03 06:15:55;;;;;;;3.42;1.48;;;;;;;8.68;52.05;102065.47;4932317;28;20098;-78
2023/02/03 06:18:24;;;;;;;4.28;2.03;;;;;;;8.68;51.90;102060.91;4930567;28;20055;-78
2023/02/03 06:20:52;;;;;;;3.30;1.45;;;;;;;8.68;51.78;102071.81;4930696;28;20040;-78
2023/02/03 06:23:20;;;;;;;3.70;1.60;;;;;;;8.68;52.00;102071.81;4931287;28;20046;-78
2023/02/03 06:25:49;;;;;;;4.22;1.70;;;;;;;8.69;51.53;102068.13;4930548;28;20046;-78
2023/02/03 06:28:17;;;;;;;4.40;1.63;;;;;;;8.69;51.68;102078.16;4929240;28;20522;-78
2023/02/03 06:30:45;;;;;;;4.55;1.65;;;;;;;8.70;51.39;102089.00;4931146;28;20050;-78
2023/02/03 06:33:16;;;;;;;5.85;1.85;;;;;;;8.69;51.78;102086.34;4960022;28;20054;-78
2023/02/03 06:35:47;;;;;;;4.47;1.50;;;;;;;8.73;51.34;102087.94;4929854;29;20123;-77
2023/02/03 06:38:15;;;;;;;3.63;1.50;;;;;;;8.70;51.42;102074.47;4944865;28;20053;-78
2023/02/03 06:40:46;;;;;;;4.25;1.45;;;;;;;8.72;51.26;102069.78;4963863;28;20060;-77
2023/02/03 06:43:15;;;;;;;2.92;1.23;;;;;;;8.71;51.76;102065.31;4930907;28;20122;-79
2023/02/03 06:45:46;;;;;;;4.20;1.52;;;;;;;8.71;51.42;102062.56;4945406;29;20457;-78
2023/02/03 06:48:14;;;;;;;5.53;1.55;;;;;;;8.69;51.46;102068.13;4941048;28;20038;-78
2023/02/03 06:50:42;;;;;;;2.55;1.25;;;;;;;8.70;51.27;102071.72;4931067;28;20098;-78
2023/02/03 06:53:11;;;;;;;4.28;1.60;;;;;;;8.73;51.15;102066.09;4931337;28;20054;-78
2023/02/03 06:55:39;;;;;;;2.40;1.20;;;;;;;8.70;51.27;102058.97;4931179;28;20110;-78
2023/02/03 06:58:07;;;;;;;3.42;1.30;;;;;;;8.72;51.59;102064.34;4930218;28;20320;-78
2023/02/03 07:00:35;;;;;;;3.65;1.40;;;;;;;8.71;51.12;102059.84;4943889;28;20566;-78
2023/02/03 07:03:03;;;;;;;2.50;1.23;;;;;;;8.72;51.29;102064.34;4931738;29;20066;-77
2023/02/03 07:05:31;;;;;;;4.47;1.30;;;;;;;8.72;51.41;102072.53;4961431;28;20056;-78
2023/02/03 07:07:59;;;;;;;4.78;1.70;;;;;;;8.72;51.42;102061.59;4949854;28;20054;-78
2023/02/03 07:10:28;;;;;;;3.70;1.30;;;;;;;8.74;50.83;102077.91;4966284;28;20433;-78
2023/02/03 07:13:02;;;;;;;3.67;1.33;;;;;;;8.75;51.09;102077.81;4930964;28;20047;-77
2023/02/03 07:15:30;;;;;;;4.45;1.50;;;;;;;8.73;51.27;102078.88;4930576;28;20533;-77
2023/02/03 07:17:58;;;;;;;5.22;1.60;;;;;;;8.73;51.15;102079.75;4930755;28;20043;-78
2023/02/03 07:20:27;;;;;;;3.15;1.40;;;;;;;8.74;51.39;102086.09;4929366;28;20060;-78
2023/02/03 07:22:57;;;;;;;4.25;1.60;;;;;;;8.75;51.39;102088.72;4929949;28;20055;-77
2023/02/03 07:25:26;;;;;;;2.78;1.05;;;;;;;8.75;51.24;102088.72;4928957;28;20400;-78
2023/02/03 07:27:55;;;;;;;3.30;1.38;;;;;;;8.78;51.31;102082.19;4931213;28;20043;-77
2023/02/03 07:30:23;;;;;;;4.57;1.70;;;;;;;8.77;50.79;102070.38;4929102;28;20093;-78
2023/02/03 07:32:52;;;;;;;4.53;1.90;;;;;;;8.77;50.95;102073.13;4930883;28;20040;-77
2023/02/03 07:35:21;;;;;;;4.32;1.67;;;;;;;8.78;50.77;102071.25;4930050;28;20339;-78
2023/02/03 07:37:48;;;;;;;4.47;1.63;;;;;;;8.78;51.42;102077.59;4947793;28;20061;-78
2023/02/03 07:40:17;;;;;;;4.10;1.50;;;;;;;8.80;50.95;102074.78;4934819;28;20055;-78
2023/02/03 07:42:46;;;;;;;4.90;1.60;;;;;;;8.80;50.95;102088.44;4934210;28;20051;-77
2023/02/03 07:45:17;;;;;;;3.90;1.90;;;;;;;8.81;50.76;102082.88;4928659;28;20044;-78
2023/02/03 07:47:45;;;;;;;3.53;1.50;;;;;;;8.81;50.96;102062.91;4929481;28;20058;-78
2023/02/03 07:50:13;;;;;;;3.45;1.42;;;;;;;8.80;50.98;102064.75;4929105;28;20107;-78
2023/02/03 07:52:41;;;;;;;3.33;1.60;;;;;;;8.81;51.22;102076.53;4960161;28;20068;-78
2023/02/03 07:55:09;;;;;;;2.28;1.40;;;;;;;8.83;51.24;102066.41;4930061;29;20526;-77
2023/02/03 07:57:42;;;;;;;3.88;1.50;;;;;;;8.83;51.16;102082.81;4929165;29;20051;-78
2023/02/03 08:00:11;;;;;;;4.15;1.50;;;;;;;8.82;51.20;102079.19;4943010;28;20043;-77
2023/02/03 08:02:41;;;;;;;2.92;1.60;;;;;;;8.84;50.98;102066.28;4936500;28;20081;-78
2023/02/03 08:05:09;;;;;;;5.20;1.60;;;;;;;8.83;50.83;102078.22;4930453;29;20693;-77
2023/02/03 08:07:37;;;;;;;2.53;1.30;;;;;;;8.84;50.81;102090.00;4930995;28;20090;-77
2023/02/03 08:10:05;;;;;;;2.97;1.50;;;;;;;8.85;50.69;102089.03;4936876;28;20063;-78
2023/02/03 08:12:33;;;;;;;2.75;1.67;;;;;;;8.85;51.02;102089.91;4933425;28;20051;-78
2023/02/03 08:15:01;;;;;;;4.32;1.55;;;;;;;8.86;50.93;102096.25;4929471;29;20067;-78
2023/02/03 08:17:29;;;;;;;4.10;1.60;;;;;;;8.86;50.97;102102.59;4928285;28;20044;-79
2023/02/03 08:19:58;;;;;;;3.33;1.35;;;;;;;8.88;51.06;102094.31;4928688;28;20048;-77
2023/02/03 08:22:26;;;;;;;2.78;1.58;;;;;;;8.84;51.28;102101.78;4929918;28;20048;-77
2023/02/03 08:24:54;;;;;;;3.67;1.52;;;;;;;8.86;50.76;102120.81;4925847;29;20044;-77
2023/02/03 08:27:23;;;;;;;3.75;1.70;;;;;;;8.87;50.74;102120.72;4956386;23;20047;-76
2023/02/03 08:29:50;;;;;;;4.30;1.70;;;;;;;8.86;51.14;102124.44;4947749;28;20044;-77
2023/02/03 08:32:20;;;;;;;2.70;1.30;;;;;;;8.88;50.68;102116.16;4940358;29;20059;-77
2023/02/03 08:34:48;;;;;;;5.82;1.95;;;;;;;8.88;51.01;102110.69;4958175;28;20042;-77
2023/02/03 08:37:21;;;;;;;2.83;1.60;;;;;;;8.91;50.43;102114.13;4938380;28;20058;-77
2023/02/03 08:39:49;;;;;;;2.03;1.33;;;;;;;8.89;51.05;102120.63;4943979;28;20498;-77
2023/02/03 08:42:17;;;;;;;4.78;1.80;;;;;;;8.91;50.58;102113.25;4953119;28;20405;-77
2023/02/03 08:44:45;;;;;;;3.72;2.10;;;;;;;8.92;50.65;102109.50;4944204;28;20426;-77
2023/02/03 08:47:13;;;;;;;3.20;1.73;;;;;;;8.93;50.92;102125.81;4975846;28;20058;-77
2023/02/03 08:49:41;;;;;;;4.40;2.45;;;;;;;8.95;50.87;102123.00;4960286;28;20055;-77
2023/02/03 08:52:11;;;;;;;3.55;1.80;;;;;;;8.95;51.00;102106.59;4984868;28;20033;-77
2023/02/03 08:54:41;;;;;;;3.88;2.17;;;;;;;8.96;50.93;102127.47;4951865;28;20501;-77
2023/02/03 08:57:09;;;;;;;4.40;2.08;;;;;;;8.94;50.54;102124.84;4959140;28;20047;-77
2023/02/03 08:59:39;;;;;;;4.35;2.05;;;;;;;8.97;51.10;102119.19;4945503;28;20528;-77
2023/02/03 09:02:11;;;;;;;4.50;2.00;;;;;;;8.99;50.49;102141.84;4950292;29;20070;-76
2023/02/03 09:04:39;;;;;;;5.07;2.40;;;;;;;8.95;50.54;102129.34;4949028;28;20039;-76
2023/02/03 09:07:07;;;;;;;3.92;2.33;;;;;;;8.97;50.68;102131.97;4950793;28;20062;-76
2023/02/03 09:09:34;;;;;;;2.83;1.98;;;;;;;8.97;50.82;102138.31;4991345;28;20063;-76
2023/02/03 09:12:05;;;;;;;5.57;2.85;;;;;;;9.00;50.44;102140.84;4966324;28;20046;-76
2023/02/03 09:14:34;;;;;;;4.53;2.40;;;;;;;8.99;50.45;102135.50;4949193;28;20412;-76
2023/02/03 09:17:03;;;;;;;4.43;2.47;;;;;;;9.00;50.70;102131.78;4948619;28;20429;-76
2023/02/03 09:19:31;;;;;;;3.60;2.45;;;;;;;9.01;50.54;102130.78;4950052;28;20549;-76
2023/02/03 09:22:06;;;;;;;5.53;2.42;;;;;;;8.98;50.77;102151.00;4949719;28;20047;-76
2023/02/03 09:24:34;;;;;;;3.85;2.67;;;;;;;8.99;50.55;102141.84;4949747;28;20513;-76
2023/02/03 09:27:02;;;;;;;3.78;2.85;;;;;;;8.99;50.60;102141.84;4936443;29;20659;-76
2023/02/03 09:29:31;;;;;;;4.55;2.80;;;;;;;9.01;51.04;102133.53;4960173;28;20523;-76
2023/02/03 09:31:59;;;;;;;5.53;2.83;;;;;;;8.99;51.13;102144.56;4951071;28;20043;-76
2023/02/03 09:34:27;;;;;;;3.97;2.55;;;;;;;8.99;50.83;102147.31;4949334;28;20132;-76
2023/02/03 09:36:55;;;;;;;4.50;2.67;;;;;;;8.99;50.90;102135.50;4955959;28;20063;-76
2023/02/03 09:39:23;;;;;;;4.55;2.80;;;;;;;8.99;50.77;102146.41;4946422;28;20062;-76
2023/02/03 09:42:09;;;;;;;5.28;2.75;;;;;;;9.00;51.21;102138.09;4951201;28;20039;-76
2023/02/03 09:44:47;;;;;;;3.72;2.65;;;;;;;9.01;50.99;102137.13;4948934;28;20138;-76
2023/02/03 09:47:18;;;;;;;4.35;2.80;;;;;;;9.00;51.11;102143.56;4945985;28;20052;-76
2023/02/03 09:49:50;;;;;;;5.22;3.22;;;;;;;9.01;50.81;102145.34;4969831;28;20141;-76
2023/02/03 09:52:21;;;;;;;4.57;2.92;;;;;;;8.98;51.13;102137.34;4949303;28;20051;-76
2023/02/03 09:54:54;;;;;;;4.70;3.30;;;;;;;9.01;51.23;102126.22;4968593;28;20055;-76
2023/02/03 09:57:24;;;;;;;5.50;3.67;;;;;;;9.00;51.08;102134.53;4974839;28;20045;-76
2023/02/03 09:59:56;;;;;;;4.57;3.15;;;;;;;8.99;51.13;102144.56;4979928;28;20493;-76
2023/02/03 10:02:46;;;;;;;6.03;3.33;;;;;;;8.99;51.58;102146.41;4954275;28;20055;-76
2023/02/03 10:05:22;;;;;;;5.25;3.33;;;;;;;8.98;51.48;102147.38;4947351;28;20051;-76
2023/02/03 10:08:00;;;;;;;4.63;3.50;;;;;;;8.98;51.40;102151.00;4964072;28;20054;-76
2023/02/03 10:10:37;;;;;;;6.85;3.55;;;;;;;9.00;51.27;102145.44;4948345;28;20559;-76
2023/02/03 10:13:15;;;;;;;4.82;3.53;;;;;;;8.97;51.67;102130.13;4966258;28;20493;-76
2023/02/03 10:16:12;;;;;;;5.80;3.90;;;;;;;8.95;51.51;102151.16;4944792;29;20067;-76
2023/02/03 10:18:49;;;;;;;6.38;4.03;;;;;;;8.96;51.50;102152.06;4948945;28;20078;-76
2023/02/03 10:21:25;;;;;;;6.45;4.03;;;;;;;8.97;51.60;102143.78;4948686;28;20134;-76
2023/02/03 10:23:56;;;;;;;5.57;4.35;;;;;;;8.97;51.36;102142.91;4944652;28;20474;-76
2023/02/03 10:26:27;;;;;;;6.32;4.10;;;;;;;8.98;51.84;102145.53;5000192;28;20132;-76
2023/02/03 10:28:56;;;;;;;5.53;3.90;;;;;;;8.97;51.29;102151.09;4956564;28;20056;-76
2023/02/03 10:31:27;;;;;;;6.28;4.47;;;;;;;8.99;51.47;102143.69;4948139;28;20109;-76
2023/02/03 10:34:00;;;;;;;6.70;4.22;;;;;;;8.98;51.96;102142.81;4949057;28;20047;-76
2023/02/03 10:36:47;;;;;;;5.65;4.38;;;;;;;8.97;52.21;102132.84;4949747;28;20043;-76
2023/02/03 10:39:24;;;;;;;5.78;4.22;;;;;;;8.96;51.86;102125.63;4986904;28;20055;-77
2023/02/03 10:41:58;;;;;;;6.07;4.38;;;;;;;8.97;52.08;102134.69;4947885;28;20044;-76
2023/02/03 10:44:36;;;;;;;7.75;4.85;;;;;;;8.97;51.83;102130.13;4948971;28;20564;-77
2023/02/03 10:47:20;;;;;;;5.53;4.63;;;;;;;8.97;51.80;102143.78;4937384;29;20516;-76
2023/02/03 10:49:51;;;;;;;6.97;4.97;;;;;;;8.97;51.71;102151.09;4948531;28;20051;-77
2023/02/03 10:52:29;;;;;;;6.88;5.15;;;;;;;8.98;52.05;102150.13;4948999;28;20054;-77
2023/02/03 10:54:58;;;;;;;7.13;5.20;;;;;;;8.94;52.11;102138.50;4938888;29;20079;-77
2023/02/03 10:57:29;;;;;;;6.65;5.13;;;;;;;8.97;52.05;102146.50;4948807;28;20448;-77
2023/02/03 11:00:08;;;;;;;7.00;4.80;;;;;;;9.00;51.90;102138.09;4957025;28;20057;-77
2023/02/03 11:02:37;;;;;;;6.80;4.82;;;;;;;8.97;51.74;102138.31;4947594;28;20126;-77
2023/02/03 11:05:19;;;;;;;6.60;5.30;;;;;;;9.00;52.24;102132.66;4948917;28;20689;-77
2023/02/03 11:07:47;;;;;;;6.53;4.93;;;;;;;8.99;52.33;102138.22;4948292;28;20078;-77
2023/02/03 11:10:34;;;;;;;5.97;4.60;;;;;;;9.00;51.90;102124.47;4959944;28;20134;-77
2023/02/03 11:13:18;;;;;;;5.90;4.78;;;;;;;9.02;52.36;102119.78;4948365;29;20036;-77
2023/02/03 11:15:53;;;;;;;7.45;4.88;;;;;;;9.01;52.02;102128.94;4939789;28;20502;-77
2023/02/03 11:18:37;;;;;;;6.45;4.82;;;;;;;9.02;52.37;102125.25;4947829;28;20047;-76
2023/02/03 11:21:11;;;;;;;5.50;4.65;;;;;;;9.02;52.01;102130.72;4946828;28;20497;-77
2023/02/03 11:23:47;;;;;;;7.45;5.22;;;;;;;9.03;52.00;102129.75;4947286;28;20059;-77
2023/02/03 11:26:20;;;;;;;7.50;5.25;;;;;;;9.03;52.10;102135.19;4962336;28;20048;-77
2023/02/03 11:28:50;;;;;;;;;;;;;;;8.79;52.63;102142.16;4948141;28;20175;-77
2023/02/03 11:31:24;;;;;;;5.93;4.10;;;;;;;9.00;52.52;102146.31;4949180;28;19926;-77
2023/02/03 11:33:57;;;;;;;7.03;4.78;;;;;;;9.06;52.02;102156.00;4947963;28;20045;-77
2023/02/03 11:36:26;;;;;;;;;;;;;;;8.80;52.68;102143.91;4948211;28;20047;-76
2023/02/03 11:39:09;;;;;;;9.00;5.28;;;;;;;9.01;52.77;102148.06;4951373;28;19926;-77
2023/02/03 11:41:39;;;;;;;6.40;4.75;;;;;;;9.06;52.47;102148.69;4948868;28;20066;-77
2023/02/03 11:44:18;;;;;;;6.50;4.90;;;;;;;9.10;52.09;102152.09;4947619;28;20117;-77
2023/02/03 11:46:50;;;;;;;7.05;5.22;;;;;;;9.09;52.54;102158.53;4961401;28;20115;-76
2023/02/03 11:49:43;;;;;;;8.35;5.35;;;;;;;9.10;52.05;102152.09;4976697;28;20341;-76
2023/02/03 11:52:28;;;;;;;6.28;5.07;;;;;;;9.10;52.59;102157.56;4963806;28;20438;-76
2023/02/03 11:55:06;;;;;;;6.97;5.43;;;;;;;9.12;52.21;102155.63;4945913;28;20054;-76
2023/02/03 11:57:44;;;;;;;8.88;5.10;;;;;;;9.14;52.31;102150.06;4940374;28;20122;-75